sensor_id;sensor_type;location;lat;lon;timestamp;P1;durP1;ratioP1;P2;durP2;ratioP2
17967;SDS011;9109;48.050;11.696;2023-08-24T03:50:25;8.60;;;6.50;;
17967;SDS011;9109;48.050;11.696;2023-08-24T03:53:27;10.55;;;6.65;;
17967;SDS011;9109;48.050;11.696;2023-08-24T03:56:30;11.20;;;6.55;;
17967;SDS011;9109;48.050;11.696;2023-08-24T03:59:34;9.88;;;6.57;;
17967;SDS011;9109;48.050;11.696;2023-08-24T04:02:41;14.88;;;6.82;;
17967;SDS011;9109;48.050;11.696;2023-08-24T04:05:47;9.63;;;6.47;;
17967;SDS011;9109;48.050;11.696;2023-08-24T04:09:00;12.63;;;7.10;;
17967;SDS011;9109;48.050;11.696;2023-08-24T04:12:07;11.32;;;6.35;;
17967;SDS011;9109;48.050;11.696;2023-08-24T04:15:10;10.95;;;6.70;;
17967;SDS011;9109;48.050;11.696;2023-08-24T04:27:29;10.55;;;6.95;;
17967;SDS011;9109;48.050;11.696;2023-08-24T04:29:21;12.77;;;7.25;;
17967;SDS011;9109;48.050;11.696;2023-08-24T04:32:25;12.32;;;6.60;;
17967;SDS011;9109;48.050;11.696;2023-08-24T04:35:35;10.05;;;6.97;;
17967;SDS011;9109;48.050;11.696;2023-08-24T04:38:39;10.20;;;6.90;;
17967;SDS011;9109;48.050;11.696;2023-08-24T04:41:45;10.57;;;6.60;;
17967;SDS011;9109;48.050;11.696;2023-08-24T04:44:47;10.60;;;7.15;;
17967;SDS011;9109;48.050;11.696;2023-08-24T04:47:59;12.68;;;6.85;;
17967;SDS011;9109;48.050;11.696;2023-08-24T04:51:07;9.73;;;6.63;;
17967;SDS011;9109;48.050;11.696;2023-08-24T04:54:16;13.13;;;6.43;;
17967;SDS011;9109;48.050;11.696;2023-08-24T04:57:24;9.13;;;6.13;;
17967;SDS011;9109;48.050;11.696;2023-08-24T05:00:30;12.27;;;6.60;;
17967;SDS011;9109;48.050;11.696;2023-08-24T05:03:35;12.75;;;7.25;;
17967;SDS011;9109;48.050;11.696;2023-08-24T05:06:47;15.25;;;7.47;;
17967;SDS011;9109;48.050;11.696;2023-08-24T05:09:59;11.85;;;6.78;;
17967;SDS011;9109;48.050;11.696;2023-08-24T05:13:01;12.90;;;6.18;;
17967;SDS011;9109;48.050;11.696;2023-08-24T05:16:07;10.95;;;6.57;;
17967;SDS011;9109;48.050;11.696;2023-08-24T05:19:11;11.02;;;6.43;;
17967;SDS011;9109;48.050;11.696;2023-08-24T05:22:21;11.40;;;6.47;;
17967;SDS011;9109;48.050;11.696;2023-08-24T05:25:24;15.35;;;7.45;;
17967;SDS011;9109;48.050;11.696;2023-08-24T05:28:30;10.27;;;6.80;;
17967;SDS011;9109;48.050;11.696;2023-08-24T05:31:33;13.43;;;7.45;;
17967;SDS011;9109;48.050;11.696;2023-08-24T05:34:35;14.55;;;7.63;;
17967;SDS011;9109;48.050;11.696;2023-08-24T05:37:43;12.32;;;7.50;;
17967;SDS011;9109;48.050;11.696;2023-08-24T05:40:49;10.93;;;7.38;;
17967;SDS011;9109;48.050;11.696;2023-08-24T05:43:56;11.55;;;7.07;;
17967;SDS011;9109;48.050;11.696;2023-08-24T05:47:00;11.68;;;7.20;;
17967;SDS011;9109;48.050;11.696;2023-08-24T05:50:07;12.93;;;7.80;;
17967;SDS011;9109;48.050;11.696;2023-08-24T05:53:14;17.02;;;8.65;;
17967;SDS011;9109;48.050;11.696;2023-08-24T05:56:18;13.20;;;8.82;;
17967;SDS011;9109;48.050;11.696;2023-08-24T05:59:24;14.73;;;9.00;;
17967;SDS011;9109;48.050;11.696;2023-08-24T06:02:34;18.45;;;9.95;;
17967;SDS011;9109;48.050;11.696;2023-08-24T06:05:41;14.07;;;9.77;;
17967;SDS011;9109;48.050;11.696;2023-08-24T06:09:30;13.80;;;9.07;;
17967;SDS011;9109;48.050;11.696;2023-08-24T06:16:56;17.42;;;9.65;;
17967;SDS011;9109;48.050;11.696;2023-08-24T06:20:14;13.43;;;9.25;;
17967;SDS011;9109;48.050;11.696;2023-08-24T06:23:45;18.42;;;10.10;;
17967;SDS011;9109;48.050;11.696;2023-08-24T06:31:07;14.80;;;9.10;;
17967;SDS011;9109;48.050;11.696;2023-08-24T06:34:17;16.83;;;9.32;;
17967;SDS011;9109;48.050;11.696;2023-08-24T06:37:28;13.73;;;8.88;;
17967;SDS011;9109;48.050;11.696;2023-08-24T06:40:30;15.43;;;9.25;;
17967;SDS011;9109;48.050;11.696;2023-08-24T06:43:33;15.25;;;8.82;;
17967;SDS011;9109;48.050;11.696;2023-08-24T06:46:36;16.98;;;8.02;;
17967;SDS011;9109;48.050;11.696;2023-08-24T06:49:38;17.10;;;8.13;;
17967;SDS011;9109;48.050;11.696;2023-08-24T06:52:40;20.40;;;9.20;;
17967;SDS011;9109;48.050;11.696;2023-08-24T06:55:42;11.88;;;8.05;;
17967;SDS011;9109;48.050;11.696;2023-08-24T06:58:44;11.93;;;7.97;;
17967;SDS011;9109;48.050;11.696;2023-08-24T07:01:48;13.90;;;7.65;;
17967;SDS011;9109;48.050;11.696;2023-08-24T07:04:50;15.00;;;8.45;;
17967;SDS011;9109;48.050;11.696;2023-08-24T07:07:52;13.40;;;7.78;;
17967;SDS011;9109;48.050;11.696;2023-08-24T07:10:54;12.38;;;8.02;;
17967;SDS011;9109;48.050;11.696;2023-08-24T07:13:57;12.38;;;8.07;;
17967;SDS011;9109;48.050;11.696;2023-08-24T07:17:00;18.27;;;7.65;;
17967;SDS011;9109;48.050;11.696;2023-08-24T07:20:03;19.27;;;8.10;;
17967;SDS011;9109;48.050;11.696;2023-08-24T07:23:15;12.23;;;7.45;;
17967;SDS011;9109;48.050;11.696;2023-08-24T07:26:17;12.95;;;7.50;;
17967;SDS011;9109;48.050;11.696;2023-08-24T07:29:19;13.18;;;8.13;;
17967;SDS011;9109;48.050;11.696;2023-08-24T07:32:23;15.90;;;7.78;;
17967;SDS011;9109;48.050;11.696;2023-08-24T07:35:25;13.65;;;7.78;;
17967;SDS011;9109;48.050;11.696;2023-08-24T07:38:30;19.33;;;7.47;;
17967;SDS011;9109;48.050;11.696;2023-08-24T07:41:33;11.52;;;7.30;;
17967;SDS011;9109;48.050;11.696;2023-08-24T07:44:38;13.93;;;6.97;;
17967;SDS011;9109;48.050;11.696;2023-08-24T07:47:44;13.93;;;7.22;;
17967;SDS011;9109;48.050;11.696;2023-08-24T07:50:46;10.50;;;6.97;;
17967;SDS011;9109;48.050;11.696;2023-08-24T07:53:48;12.20;;;7.15;;
17967;SDS011;9109;48.050;11.696;2023-08-24T07:56:52;11.98;;;7.00;;
17967;SDS011;9109;48.050;11.696;2023-08-24T07:59:54;14.20;;;7.60;;
17967;SDS011;9109;48.050;11.696;2023-08-24T08:02:58;10.48;;;6.78;;
17967;SDS011;9109;48.050;11.696;2023-08-24T08:06:00;12.15;;;7.05;;
17967;SDS011;9109;48.050;11.696;2023-08-24T08:09:03;12.25;;;6.97;;
17967;SDS011;9109;48.050;11.696;2023-08-24T08:12:05;11.85;;;6.65;;
17967;SDS011;9109;48.050;11.696;2023-08-24T08:15:08;13.20;;;6.63;;
17967;SDS011;9109;48.050;11.696;2023-08-24T08:18:12;15.95;;;7.38;;
17967;SDS011;9109;48.050;11.696;2023-08-24T08:21:14;16.45;;;6.68;;
17967;SDS011;9109;48.050;11.696;2023-08-24T08:24:19;15.75;;;6.93;;
17967;SDS011;9109;48.050;11.696;2023-08-24T08:27:21;21.92;;;6.65;;
17967;SDS011;9109;48.050;11.696;2023-08-24T08:30:23;18.00;;;6.93;;
17967;SDS011;9109;48.050;11.696;2023-08-24T08:33:31;14.18;;;7.72;;
17967;SDS011;9109;48.050;11.696;2023-08-24T08:36:33;13.00;;;6.85;;
17967;SDS011;9109;48.050;11.696;2023-08-24T08:39:35;14.10;;;6.68;;
17967;SDS011;9109;48.050;11.696;2023-08-24T08:42:37;20.90;;;6.82;;
17967;SDS011;9109;48.050;11.696;2023-08-24T08:45:40;12.95;;;6.63;;
17967;SDS011;9109;48.050;11.696;2023-08-24T08:48:44;12.23;;;5.97;;
17967;SDS011;9109;48.050;11.696;2023-08-24T08:51:46;9.43;;;6.85;;
17967;SDS011;9109;48.050;11.696;2023-08-24T08:54:49;10.50;;;6.30;;
17967;SDS011;9109;48.050;11.696;2023-08-24T08:57:51;11.32;;;6.90;;
17967;SDS011;9109;48.050;11.696;2023-08-24T09:00:58;13.10;;;6.32;;
17967;SDS011;9109;48.050;11.696;2023-08-24T09:04:05;10.25;;;6.55;;
17967;SDS011;9109;48.050;11.696;2023-08-24T09:07:07;13.18;;;6.43;;
17967;SDS011;9109;48.050;11.696;2023-08-24T09:10:11;11.35;;;6.63;;
17967;SDS011;9109;48.050;11.696;2023-08-24T09:13:14;15.90;;;6.53;;
17967;SDS011;9109;48.050;11.696;2023-08-24T09:16:16;16.05;;;6.78;;
17967;SDS011;9109;48.050;11.696;2023-08-24T09:19:22;12.98;;;6.18;;
17967;SDS011;9109;48.050;11.696;2023-08-24T09:22:33;18.35;;;6.43;;
17967;SDS011;9109;48.050;11.696;2023-08-24T09:25:42;12.40;;;6.80;;
17967;SDS011;9109;48.050;11.696;2023-08-24T09:28:49;19.40;;;7.20;;
17967;SDS011;9109;48.050;11.696;2023-08-24T09:31:51;15.25;;;6.50;;
17967;SDS011;9109;48.050;11.696;2023-08-24T09:34:55;19.23;;;7.15;;
17967;SDS011;9109;48.050;11.696;2023-08-24T09:38:16;13.68;;;6.88;;
17967;SDS011;9109;48.050;11.696;2023-08-24T09:41:19;15.82;;;7.82;;
17967;SDS011;9109;48.050;11.696;2023-08-24T09:44:21;12.77;;;6.88;;
17967;SDS011;9109;48.050;11.696;2023-08-24T09:47:23;16.35;;;7.05;;
17967;SDS011;9109;48.050;11.696;2023-08-24T09:50:27;11.02;;;6.97;;
17967;SDS011;9109;48.050;11.696;2023-08-24T09:53:31;12.50;;;7.30;;
17967;SDS011;9109;48.050;11.696;2023-08-24T09:56:37;13.40;;;7.05;;
17967;SDS011;9109;48.050;11.696;2023-08-24T09:59:40;14.30;;;7.00;;
17967;SDS011;9109;48.050;11.696;2023-08-24T10:02:48;16.13;;;6.88;;
17967;SDS011;9109;48.050;11.696;2023-08-24T10:05:55;11.93;;;6.38;;
17967;SDS011;9109;48.050;11.696;2023-08-24T10:08:58;13.85;;;6.55;;
17967;SDS011;9109;48.050;11.696;2023-08-24T10:12:05;14.27;;;6.47;;
17967;SDS011;9109;48.050;11.696;2023-08-24T10:15:09;10.82;;;6.53;;
17967;SDS011;9109;48.050;11.696;2023-08-24T10:18:12;8.82;;;6.13;;
17967;SDS011;9109;48.050;11.696;2023-08-24T10:21:17;9.88;;;6.22;;
17967;SDS011;9109;48.050;11.696;2023-08-24T10:24:19;18.90;;;6.60;;
17967;SDS011;9109;48.050;11.696;2023-08-24T10:27:22;13.38;;;6.32;;
17967;SDS011;9109;48.050;11.696;2023-08-24T10:30:25;11.10;;;5.55;;
17967;SDS011;9109;48.050;11.696;2023-08-24T10:33:29;12.50;;;5.63;;
17967;SDS011;9109;48.050;11.696;2023-08-24T10:36:37;15.10;;;5.80;;
17967;SDS011;9109;48.050;11.696;2023-08-24T10:39:43;13.20;;;5.63;;
17967;SDS011;9109;48.050;11.696;2023-08-24T10:42:46;12.32;;;6.00;;
17967;SDS011;9109;48.050;11.696;2023-08-24T10:45:56;16.95;;;5.47;;
17967;SDS011;9109;48.050;11.696;2023-08-24T10:48:58;9.68;;;4.72;;
17967;SDS011;9109;48.050;11.696;2023-08-24T10:52:18;10.10;;;4.70;;
17967;SDS011;9109;48.050;11.696;2023-08-24T10:55:21;10.07;;;4.72;;
17967;SDS011;9109;48.050;11.696;2023-08-24T10:58:25;14.35;;;4.57;;
17967;SDS011;9109;48.050;11.696;2023-08-24T11:01:27;13.15;;;4.53;;
17967;SDS011;9109;48.050;11.696;2023-08-24T11:04:33;13.00;;;5.10;;
17967;SDS011;9109;48.050;11.696;2023-08-24T11:07:36;8.63;;;5.10;;
17967;SDS011;9109;48.050;11.696;2023-08-24T11:10:50;12.98;;;6.50;;
17967;SDS011;9109;48.050;11.696;2023-08-24T11:17:19;13.80;;;5.47;;
17967;SDS011;9109;48.050;11.696;2023-08-24T11:20:23;9.55;;;5.95;;
17967;SDS011;9109;48.050;11.696;2023-08-24T11:23:27;12.95;;;5.72;;
17967;SDS011;9109;48.050;11.696;2023-08-24T11:26:29;15.80;;;5.63;;
17967;SDS011;9109;48.050;11.696;2023-08-24T11:29:32;14.52;;;5.90;;
17967;SDS011;9109;48.050;11.696;2023-08-24T11:32:34;15.70;;;5.82;;
17967;SDS011;9109;48.050;11.696;2023-08-24T11:35:36;11.00;;;5.22;;
17967;SDS011;9109;48.050;11.696;2023-08-24T11:38:40;9.80;;;5.53;;
17967;SDS011;9109;48.050;11.696;2023-08-24T11:41:42;11.23;;;5.47;;
17967;SDS011;9109;48.050;11.696;2023-08-24T11:44:45;7.80;;;5.57;;
17967;SDS011;9109;48.050;11.696;2023-08-24T11:47:48;14.82;;;5.18;;
17967;SDS011;9109;48.050;11.696;2023-08-24T11:50:50;13.25;;;5.68;;
17967;SDS011;9109;48.050;11.696;2023-08-24T11:53:55;9.68;;;5.55;;
17967;SDS011;9109;48.050;11.696;2023-08-24T11:56:59;7.72;;;5.43;;
17967;SDS011;9109;48.050;11.696;2023-08-24T12:00:02;10.00;;;5.80;;
17967;SDS011;9109;48.050;11.696;2023-08-24T12:03:05;14.13;;;4.60;;
17967;SDS011;9109;48.050;11.696;2023-08-24T12:06:10;10.23;;;5.10;;
17967;SDS011;9109;48.050;11.696;2023-08-24T12:09:14;10.32;;;4.78;;
17967;SDS011;9109;48.050;11.696;2023-08-24T12:12:17;10.85;;;4.95;;
17967;SDS011;9109;48.050;11.696;2023-08-24T12:15:20;8.70;;;4.30;;
17967;SDS011;9109;48.050;11.696;2023-08-24T12:18:22;8.82;;;4.13;;
17967;SDS011;9109;48.050;11.696;2023-08-24T12:21:25;11.73;;;4.95;;
17967;SDS011;9109;48.050;11.696;2023-08-24T12:24:29;15.27;;;5.20;;
17967;SDS011;9109;48.050;11.696;2023-08-24T12:27:31;20.17;;;5.25;;
17967;SDS011;9109;48.050;11.696;2023-08-24T12:30:36;14.75;;;5.07;;
17967;SDS011;9109;48.050;11.696;2023-08-24T12:33:45;19.15;;;5.28;;
17967;SDS011;9109;48.050;11.696;2023-08-24T12:36:58;10.80;;;4.15;;
17967;SDS011;9109;48.050;11.696;2023-08-24T12:40:02;12.75;;;4.47;;
17967;SDS011;9109;48.050;11.696;2023-08-24T12:43:05;11.02;;;5.07;;
17967;SDS011;9109;48.050;11.696;2023-08-24T12:46:07;13.95;;;5.45;;
17967;SDS011;9109;48.050;11.696;2023-08-24T12:49:10;13.50;;;5.30;;
17967;SDS011;9109;48.050;11.696;2023-08-24T12:52:11;12.85;;;4.38;;
17967;SDS011;9109;48.050;11.696;2023-08-24T12:55:15;17.25;;;4.25;;
17967;SDS011;9109;48.050;11.696;2023-08-24T12:58:17;13.20;;;4.32;;
17967;SDS011;9109;48.050;11.696;2023-08-24T13:01:21;28.40;;;4.93;;
17967;SDS011;9109;48.050;11.696;2023-08-24T13:04:23;19.10;;;5.00;;
17967;SDS011;9109;48.050;11.696;2023-08-24T13:07:25;11.75;;;4.78;;
17967;SDS011;9109;48.050;11.696;2023-08-24T13:10:28;15.77;;;4.88;;
17967;SDS011;9109;48.050;11.696;2023-08-24T13:13:30;44.42;;;5.80;;
17967;SDS011;9109;48.050;11.696;2023-08-24T13:16:32;14.25;;;5.18;;
17967;SDS011;9109;48.050;11.696;2023-08-24T13:19:34;12.43;;;5.80;;
17967;SDS011;9109;48.050;11.696;2023-08-24T13:22:36;9.80;;;4.85;;
17967;SDS011;9109;48.050;11.696;2023-08-24T13:25:40;15.27;;;5.53;;
17967;SDS011;9109;48.050;11.696;2023-08-24T13:28:42;15.35;;;5.45;;
17967;SDS011;9109;48.050;11.696;2023-08-24T13:31:44;12.48;;;5.20;;
17967;SDS011;9109;48.050;11.696;2023-08-24T13:34:46;14.55;;;4.95;;
17967;SDS011;9109;48.050;11.696;2023-08-24T13:37:48;16.20;;;4.68;;
17967;SDS011;9109;48.050;11.696;2023-08-24T13:40:52;13.18;;;5.03;;
17967;SDS011;9109;48.050;11.696;2023-08-24T13:43:54;19.63;;;5.20;;
17967;SDS011;9109;48.050;11.696;2023-08-24T13:46:56;13.85;;;4.53;;
17967;SDS011;9109;48.050;11.696;2023-08-24T13:49:58;10.02;;;5.15;;
17967;SDS011;9109;48.050;11.696;2023-08-24T13:53:00;14.27;;;5.00;;
17967;SDS011;9109;48.050;11.696;2023-08-24T13:56:04;9.60;;;4.78;;
17967;SDS011;9109;48.050;11.696;2023-08-24T13:59:06;14.00;;;5.30;;
17967;SDS011;9109;48.050;11.696;2023-08-24T14:02:09;15.40;;;5.35;;
17967;SDS011;9109;48.050;11.696;2023-08-24T14:05:11;13.55;;;4.60;;
17967;SDS011;9109;48.050;11.696;2023-08-24T14:08:13;8.60;;;4.63;;
17967;SDS011;9109;48.050;11.696;2023-08-24T14:11:17;19.20;;;5.25;;
17967;SDS011;9109;48.050;11.696;2023-08-24T14:14:19;15.23;;;4.85;;
17967;SDS011;9109;48.050;11.696;2023-08-24T14:17:21;17.35;;;5.18;;
17967;SDS011;9109;48.050;11.696;2023-08-24T14:20:23;18.52;;;5.35;;
17967;SDS011;9109;48.050;11.696;2023-08-24T14:23:25;16.73;;;4.80;;
17967;SDS011;9109;48.050;11.696;2023-08-24T14:26:28;17.88;;;5.15;;
17967;SDS011;9109;48.050;11.696;2023-08-24T14:29:30;17.23;;;4.78;;
17967;SDS011;9109;48.050;11.696;2023-08-24T14:32:33;18.50;;;5.57;;
17967;SDS011;9109;48.050;11.696;2023-08-24T14:35:35;15.50;;;4.60;;
17967;SDS011;9109;48.050;11.696;2023-08-24T14:38:38;13.30;;;4.55;;
17967;SDS011;9109;48.050;11.696;2023-08-24T14:41:42;12.70;;;4.95;;
17967;SDS011;9109;48.050;11.696;2023-08-24T14:44:44;16.50;;;4.43;;
17967;SDS011;9109;48.050;11.696;2023-08-24T14:47:46;17.27;;;4.97;;
17967;SDS011;9109;48.050;11.696;2023-08-24T14:50:48;11.15;;;5.03;;
17967;SDS011;9109;48.050;11.696;2023-08-24T14:53:50;17.35;;;5.75;;
17967;SDS011;9109;48.050;11.696;2023-08-24T14:56:54;15.57;;;5.20;;
17967;SDS011;9109;48.050;11.696;2023-08-24T14:59:56;21.08;;;4.97;;
17967;SDS011;9109;48.050;11.696;2023-08-24T15:03:01;19.05;;;6.00;;
17967;SDS011;9109;48.050;11.696;2023-08-24T15:06:04;7.93;;;4.82;;
17967;SDS011;9109;48.050;11.696;2023-08-24T15:09:08;10.13;;;5.03;;
17967;SDS011;9109;48.050;11.696;2023-08-24T15:12:11;19.05;;;6.57;;
17967;SDS011;9109;48.050;11.696;2023-08-24T15:15:13;11.27;;;4.88;;
17967;SDS011;9109;48.050;11.696;2023-08-24T15:18:17;13.93;;;5.72;;
17967;SDS011;9109;48.050;11.696;2023-08-24T15:21:19;16.88;;;5.43;;
17967;SDS011;9109;48.050;11.696;2023-08-24T15:24:21;16.00;;;4.93;;
17967;SDS011;9109;48.050;11.696;2023-08-24T15:27:25;11.38;;;5.82;;
17967;SDS011;9109;48.050;11.696;2023-08-24T15:30:27;15.10;;;5.40;;
17967;SDS011;9109;48.050;11.696;2023-08-24T15:33:29;19.80;;;5.20;;
17967;SDS011;9109;48.050;11.696;2023-08-24T15:36:31;18.75;;;6.40;;
17967;SDS011;9109;48.050;11.696;2023-08-24T15:39:35;17.25;;;5.18;;
17967;SDS011;9109;48.050;11.696;2023-08-24T15:42:40;14.10;;;5.43;;
17967;SDS011;9109;48.050;11.696;2023-08-24T15:45:43;13.00;;;5.53;;
17967;SDS011;9109;48.050;11.696;2023-08-24T15:48:45;22.92;;;5.22;;
17967;SDS011;9109;48.050;11.696;2023-08-24T15:51:47;11.40;;;4.95;;
17967;SDS011;9109;48.050;11.696;2023-08-24T15:54:49;14.63;;;5.05;;
17967;SDS011;9109;48.050;11.696;2023-08-24T15:57:53;21.63;;;5.90;;
17967;SDS011;9109;48.050;11.696;2023-08-24T16:00:55;19.05;;;5.63;;
17967;SDS011;9109;48.050;11.696;2023-08-24T16:03:58;12.18;;;4.88;;
17967;SDS011;9109;48.050;11.696;2023-08-24T16:07:00;12.02;;;5.18;;
17967;SDS011;9109;48.050;11.696;2023-08-24T16:10:02;11.95;;;4.32;;
17967;SDS011;9109;48.050;11.696;2023-08-24T16:13:08;16.75;;;5.35;;
17967;SDS011;9109;48.050;11.696;2023-08-24T16:16:10;13.25;;;5.43;;
17967;SDS011;9109;48.050;11.696;2023-08-24T16:19:12;15.95;;;5.10;;
17967;SDS011;9109;48.050;11.696;2023-08-24T16:22:14;18.17;;;5.38;;
17967;SDS011;9109;48.050;11.696;2023-08-24T16:25:16;10.43;;;4.70;;
17967;SDS011;9109;48.050;11.696;2023-08-24T16:28:20;16.30;;;5.43;;
17967;SDS011;9109;48.050;11.696;2023-08-24T16:31:22;10.85;;;4.43;;
17967;SDS011;9109;48.050;11.696;2023-08-24T16:34:24;8.63;;;4.93;;
17967;SDS011;9109;48.050;11.696;2023-08-24T16:37:27;12.93;;;5.78;;
17967;SDS011;9109;48.050;11.696;2023-08-24T16:40:30;14.27;;;6.18;;
17967;SDS011;9109;48.050;11.696;2023-08-24T16:43:36;17.77;;;6.20;;
17967;SDS011;9109;48.050;11.696;2023-08-24T16:46:39;15.20;;;5.53;;
17967;SDS011;9109;48.050;11.696;2023-08-24T16:49:41;16.75;;;6.38;;
17967;SDS011;9109;48.050;11.696;2023-08-24T16:52:43;15.80;;;5.70;;
17967;SDS011;9109;48.050;11.696;2023-08-24T16:55:45;14.88;;;5.20;;
17967;SDS011;9109;48.050;11.696;2023-08-24T16:58:48;16.67;;;5.85;;
17967;SDS011;9109;48.050;11.696;2023-08-24T17:01:51;13.50;;;5.70;;
17967;SDS011;9109;48.050;11.696;2023-08-24T17:04:55;19.08;;;5.53;;
17967;SDS011;9109;48.050;11.696;2023-08-24T17:08:03;19.13;;;5.50;;
17967;SDS011;9109;48.050;11.696;2023-08-24T17:11:07;13.55;;;5.15;;
17967;SDS011;9109;48.050;11.696;2023-08-24T17:14:10;19.27;;;5.75;;
17967;SDS011;9109;48.050;11.696;2023-08-24T17:17:13;15.48;;;5.28;;
17967;SDS011;9109;48.050;11.696;2023-08-24T17:20:15;13.20;;;5.18;;
17967;SDS011;9109;48.050;11.696;2023-08-24T17:23:19;15.30;;;6.00;;
17967;SDS011;9109;48.050;11.696;2023-08-24T17:26:21;14.77;;;5.68;;
17967;SDS011;9109;48.050;11.696;2023-08-24T17:29:24;12.27;;;5.10;;
17967;SDS011;9109;48.050;11.696;2023-08-24T17:32:26;12.85;;;5.40;;
17967;SDS011;9109;48.050;11.696;2023-08-24T17:35:28;19.05;;;5.85;;
17967;SDS011;9109;48.050;11.696;2023-08-24T17:38:30;11.02;;;4.95;;
17967;SDS011;9109;48.050;11.696;2023-08-24T17:41:33;14.25;;;4.90;;
17967;SDS011;9109;48.050;11.696;2023-08-24T17:44:41;13.90;;;5.38;;
17967;SDS011;9109;48.050;11.696;2023-08-24T17:47:43;14.57;;;5.25;;
17967;SDS011;9109;48.050;11.696;2023-08-24T17:50:54;20.05;;;5.45;;
17967;SDS011;9109;48.050;11.696;2023-08-24T17:53:57;16.05;;;6.35;;
17967;SDS011;9109;48.050;11.696;2023-08-24T17:57:01;22.38;;;5.97;;
17967;SDS011;9109;48.050;11.696;2023-08-24T18:00:07;22.42;;;5.57;;
17967;SDS011;9109;48.050;11.696;2023-08-24T18:03:17;17.48;;;5.22;;
17967;SDS011;9109;48.050;11.696;2023-08-24T18:06:26;13.45;;;5.07;;
17967;SDS011;9109;48.050;11.696;2023-08-24T18:09:28;21.13;;;5.70;;
17967;SDS011;9109;48.050;11.696;2023-08-24T18:12:30;15.48;;;5.55;;
17967;SDS011;9109;48.050;11.696;2023-08-24T18:15:34;12.57;;;5.53;;
17967;SDS011;9109;48.050;11.696;2023-08-24T18:18:38;13.90;;;5.22;;
17967;SDS011;9109;48.050;11.696;2023-08-24T18:21:44;15.75;;;5.45;;
17967;SDS011;9109;48.050;11.696;2023-08-24T18:24:49;18.08;;;5.97;;
17967;SDS011;9109;48.050;11.696;2023-08-24T18:27:57;16.02;;;6.30;;
17967;SDS011;9109;48.050;11.696;2023-08-24T18:31:01;14.88;;;5.13;;
17967;SDS011;9109;48.050;11.696;2023-08-24T18:34:07;10.30;;;5.07;;
17967;SDS011;9109;48.050;11.696;2023-08-24T18:37:14;11.20;;;5.47;;
17967;SDS011;9109;48.050;11.696;2023-08-24T18:40:16;8.80;;;5.57;;
17967;SDS011;9109;48.050;11.696;2023-08-24T18:43:21;12.32;;;5.50;;
17967;SDS011;9109;48.050;11.696;2023-08-24T18:46:25;16.67;;;6.13;;
17967;SDS011;9109;48.050;11.696;2023-08-24T18:49:29;12.02;;;5.93;;
17967;SDS011;9109;48.050;11.696;2023-08-24T18:52:33;15.30;;;6.57;;
17967;SDS011;9109;48.050;11.696;2023-08-24T18:55:36;16.52;;;6.07;;
17967;SDS011;9109;48.050;11.696;2023-08-24T18:58:40;10.70;;;6.32;;
17967;SDS011;9109;48.050;11.696;2023-08-24T19:01:47;17.00;;;5.93;;
17967;SDS011;9109;48.050;11.696;2023-08-24T19:04:58;14.60;;;6.95;;
17967;SDS011;9109;48.050;11.696;2023-08-24T19:08:44;16.92;;;6.32;;
17967;SDS011;9109;48.050;11.696;2023-08-24T19:12:08;9.27;;;6.40;;
17967;SDS011;9109;48.050;11.696;2023-08-24T19:15:26;14.48;;;6.53;;
17967;SDS011;9109;48.050;11.696;2023-08-24T19:18:47;13.20;;;6.97;;
17967;SDS011;9109;48.050;11.696;2023-08-24T19:22:07;16.70;;;6.80;;
17967;SDS011;9109;48.050;11.696;2023-08-24T19:28:51;12.50;;;6.20;;
17967;SDS011;9109;48.050;11.696;2023-08-24T19:46:14;17.65;;;6.60;;
17967;SDS011;9109;48.050;11.696;2023-08-24T19:49:42;14.35;;;7.05;;
17967;SDS011;9109;48.050;11.696;2023-08-24T19:52:48;13.85;;;6.68;;
17967;SDS011;9109;48.050;11.696;2023-08-24T19:55:52;14.20;;;7.20;;
17967;SDS011;9109;48.050;11.696;2023-08-24T19:58:54;15.40;;;7.03;;
17967;SDS011;9109;48.050;11.696;2023-08-24T20:02:00;12.93;;;6.90;;
17967;SDS011;9109;48.050;11.696;2023-08-24T20:05:08;11.88;;;6.43;;
17967;SDS011;9109;48.050;11.696;2023-08-24T20:08:12;13.32;;;7.30;;
17967;SDS011;9109;48.050;11.696;2023-08-24T20:11:16;11.02;;;7.13;;
17967;SDS011;9109;48.050;11.696;2023-08-24T20:19:21;13.45;;;6.90;;
17967;SDS011;9109;48.050;11.696;2023-08-24T20:22:35;15.60;;;7.50;;
17967;SDS011;9109;48.050;11.696;2023-08-24T20:25:41;12.02;;;7.05;;
17967;SDS011;9109;48.050;11.696;2023-08-24T20:28:43;11.77;;;7.40;;
17967;SDS011;9109;48.050;11.696;2023-08-24T20:31:45;11.95;;;6.72;;
17967;SDS011;9109;48.050;11.696;2023-08-24T20:34:53;15.07;;;7.18;;
17967;SDS011;9109;48.050;11.696;2023-08-24T20:37:55;17.27;;;7.47;;
17967;SDS011;9109;48.050;11.696;2023-08-24T20:40:59;12.48;;;7.47;;
17967;SDS011;9109;48.050;11.696;2023-08-24T20:44:06;17.27;;;7.10;;
17967;SDS011;9109;48.050;11.696;2023-08-24T20:50:16;12.70;;;7.47;;
17967;SDS011;9109;48.050;11.696;2023-08-24T20:53:28;27.13;;;6.43;;
17967;SDS011;9109;48.050;11.696;2023-08-24T20:56:36;28.70;;;5.82;;
17967;SDS011;9109;48.050;11.696;2023-08-24T20:59:44;36.25;;;4.18;;
17967;SDS011;9109;48.050;11.696;2023-08-24T21:02:48;40.60;;;6.32;;
17967;SDS011;9109;48.050;11.696;2023-08-24T21:06:03;20.98;;;3.47;;
17967;SDS011;9109;48.050;11.696;2023-08-24T21:09:12;20.98;;;3.70;;
17967;SDS011;9109;48.050;11.696;2023-08-24T21:12:21;20.38;;;3.60;;
17967;SDS011;9109;48.050;11.696;2023-08-24T21:15:27;13.05;;;3.13;;
17967;SDS011;9109;48.050;11.696;2023-08-24T21:18:29;22.55;;;3.17;;
17967;SDS011;9109;48.050;11.696;2023-08-24T21:21:46;8.57;;;2.13;;
17967;SDS011;9109;48.050;11.696;2023-08-24T21:24:52;19.85;;;2.67;;
17967;SDS011;9109;48.050;11.696;2023-08-24T21:28:04;12.77;;;2.67;;
17967;SDS011;9109;48.050;11.696;2023-08-24T21:31:11;8.25;;;1.95;;
17967;SDS011;9109;48.050;11.696;2023-08-24T21:34:14;7.35;;;1.95;;
17967;SDS011;9109;48.050;11.696;2023-08-24T21:37:22;5.50;;;2.00;;
17967;SDS011;9109;48.050;11.696;2023-08-24T21:40:27;7.47;;;2.33;;
17967;SDS011;9109;48.050;11.696;2023-08-24T21:43:31;12.38;;;2.40;;
17967;SDS011;9109;48.050;11.696;2023-08-24T21:46:35;8.80;;;2.30;;
17967;SDS011;9109;48.050;11.696;2023-08-24T21:49:37;7.53;;;2.15;;
17967;SDS011;9109;48.050;11.696;2023-08-24T21:52:40;11.63;;;2.50;;
17967;SDS011;9109;48.050;11.696;2023-08-24T21:55:42;8.80;;;2.72;;
17967;SDS011;9109;48.050;11.696;2023-08-24T21:58:44;17.20;;;3.25;;
17967;SDS011;9109;48.050;11.696;2023-08-24T22:01:48;10.50;;;2.90;;
17967;SDS011;9109;48.050;11.696;2023-08-24T22:04:51;12.25;;;2.92;;
17967;SDS011;9109;48.050;11.696;2023-08-24T22:07:56;15.27;;;2.35;;
17967;SDS011;9109;48.050;11.696;2023-08-24T22:10:58;10.20;;;2.40;;
17967;SDS011;9109;48.050;11.696;2023-08-24T22:14:05;16.75;;;2.65;;
